createdAt,value
2018-01-20T00:01:01.714Z,19.03
2018-01-20T00:03:29.257Z,17.60
2018-01-20T00:05:56.798Z,15.47
2018-01-20T00:08:24.338Z,17.27
2018-01-20T00:11:03.918Z,17.07
2018-01-20T00:13:31.463Z,16.50
2018-01-20T00:15:59.044Z,15.73
2018-01-20T00:18:26.590Z,16.20
2018-01-20T00:20:54.826Z,18.23
2018-01-20T00:23:22.442Z,15.53
2018-01-20T00:25:57.349Z,15.80
2018-01-20T00:28:24.898Z,16.10
2018-01-20T00:30:52.490Z,16.80
2018-01-20T00:33:20.259Z,19.10
2018-01-20T00:35:47.802Z,16.30
2018-01-20T00:38:15.462Z,17.03
2018-01-20T00:40:43.942Z,16.20
2018-01-20T00:43:11.543Z,16.43
2018-01-20T00:45:39.089Z,15.43
2018-01-20T00:48:07.430Z,15.10
2018-01-20T00:50:34.974Z,17.93
2018-01-20T00:53:02.519Z,17.40
2018-01-20T00:55:30.073Z,16.93
2018-01-20T00:57:57.620Z,16.10
2018-01-20T01:00:26.079Z,14.93
2018-01-20T01:02:54.413Z,15.87
2018-01-20T01:05:21.993Z,13.97
2018-01-20T01:07:49.534Z,16.03
2018-01-20T01:10:18.019Z,14.87
2018-01-20T01:12:45.630Z,16.13
2018-01-20T01:15:14.026Z,17.53
2018-01-20T01:17:42.395Z,15.93
2018-01-20T01:20:09.938Z,16.17
2018-01-20T01:22:37.478Z,18.10
2018-01-20T01:25:05.019Z,18.30
2018-01-20T01:27:32.599Z,16.20
2018-01-20T01:30:00.153Z,15.57
2018-01-20T01:32:28.734Z,16.83
2018-01-20T01:34:56.335Z,17.93
2018-01-20T01:37:23.898Z,15.80
2018-01-20T01:39:51.473Z,15.07
2018-01-20T01:42:19.118Z,16.90
2018-01-20T01:44:46.659Z,14.93
2018-01-20T01:47:14.209Z,16.07
2018-01-20T01:49:41.802Z,18.97
2018-01-20T01:52:09.378Z,15.20
2018-01-20T01:54:36.999Z,17.17
2018-01-20T01:57:04.590Z,16.60
2018-01-20T01:59:32.151Z,16.90
2018-01-20T02:01:59.708Z,16.70
2018-01-20T02:04:27.250Z,16.33
2018-01-20T02:06:54.834Z,16.17
2018-01-20T02:09:22.373Z,17.03
2018-01-20T02:11:49.954Z,16.50
2018-01-20T02:14:17.498Z,18.43
2018-01-20T02:16:45.179Z,16.30
2018-01-20T02:19:12.870Z,18.40
2018-01-20T02:21:40.474Z,15.90
2018-01-20T02:24:08.950Z,17.00
2018-01-20T02:26:36.551Z,17.00
2018-01-20T02:29:04.878Z,16.40
2018-01-20T02:31:32.422Z,16.33
2018-01-20T02:33:59.975Z,16.50
2018-01-20T02:36:28.625Z,16.43
2018-01-20T02:38:57.293Z,16.03
2018-01-20T02:41:25.618Z,15.43
2018-01-20T02:43:53.168Z,15.87
2018-01-20T02:46:20.818Z,14.80
2018-01-20T02:48:48.357Z,14.27
2018-01-20T02:51:16.047Z,13.73
2018-01-20T02:53:43.593Z,14.00
2018-01-20T02:56:11.338Z,14.23
2018-01-20T02:58:38.883Z,14.30
2018-01-20T03:01:07.302Z,12.37
2018-01-20T03:03:34.896Z,13.73
2018-01-20T03:06:02.482Z,13.97
2018-01-20T03:08:30.059Z,14.30
2018-01-20T03:10:57.601Z,14.67
2018-01-20T03:13:25.388Z,13.23
2018-01-20T03:15:52.970Z,15.97
2018-01-20T03:18:20.516Z,14.57
2018-01-20T03:20:48.072Z,13.93
2018-01-20T03:23:15.761Z,15.00
2018-01-20T03:25:43.302Z,16.77
2018-01-20T03:28:10.849Z,17.03
2018-01-20T03:30:38.407Z,14.83
2018-01-20T03:33:06.286Z,17.47
2018-01-20T03:35:34.600Z,15.30
2018-01-20T03:38:02.179Z,13.67
2018-01-20T03:40:29.758Z,16.20
2018-01-20T03:42:57.305Z,16.53
2018-01-20T03:45:24.904Z,15.93
2018-01-20T03:47:52.470Z,13.80
2018-01-20T03:50:20.020Z,14.60
2018-01-20T03:52:47.562Z,14.60
2018-01-20T03:55:15.106Z,15.10
2018-01-20T03:57:42.709Z,16.90
2018-01-20T04:00:11.103Z,14.90
2018-01-20T04:02:38.678Z,14.77
2018-01-20T04:05:06.217Z,14.63
2018-01-20T04:07:33.809Z,15.50
2018-01-20T04:10:01.440Z,14.90
2018-01-20T04:12:29.129Z,16.47
2018-01-20T04:14:57.458Z,15.50
2018-01-20T04:17:25.774Z,15.57
2018-01-20T04:19:53.451Z,14.90
2018-01-20T04:22:20.991Z,15.60
2018-01-20T04:24:48.536Z,16.50
2018-01-20T04:27:16.077Z,15.50
2018-01-20T04:29:43.622Z,15.67
2018-01-20T04:32:11.166Z,13.70
2018-01-20T04:34:38.810Z,14.67
2018-01-20T04:37:06.369Z,16.03
2018-01-20T04:39:33.997Z,13.83
2018-01-20T04:42:01.594Z,15.00
2018-01-20T04:44:29.363Z,14.23
2018-01-20T04:46:56.906Z,14.70
2018-01-20T04:49:24.451Z,14.53
2018-01-20T04:51:52.002Z,18.10
2018-01-20T04:54:19.551Z,15.13
2018-01-20T04:56:47.091Z,14.67
2018-01-20T04:59:14.634Z,15.20
2018-01-20T05:01:42.951Z,15.23
2018-01-20T05:04:10.495Z,15.00
2018-01-20T05:06:38.942Z,17.40
2018-01-20T05:09:07.264Z,16.17
2018-01-20T05:11:35.579Z,15.63
2018-01-20T05:14:03.123Z,15.77
2018-01-20T05:16:30.670Z,15.53
2018-01-20T05:18:58.249Z,15.10
2018-01-20T05:21:25.876Z,15.93
2018-01-20T05:23:53.549Z,16.20
2018-01-20T05:26:21.089Z,17.77
2018-01-20T05:28:48.633Z,17.40
2018-01-20T05:31:16.174Z,15.90
2018-01-20T05:33:43.720Z,16.47
2018-01-20T05:36:11.262Z,15.57
2018-01-20T05:38:39.409Z,15.03
2018-01-20T05:41:06.974Z,17.27
2018-01-20T05:43:35.469Z,15.33
2018-01-20T05:46:03.903Z,14.73
2018-01-20T05:48:31.482Z,16.03
2018-01-20T05:50:59.031Z,16.23
2018-01-20T05:53:26.681Z,15.07
2018-01-20T05:55:54.257Z,16.13
2018-01-20T05:58:21.878Z,15.73
2018-01-20T06:00:49.428Z,17.43
2018-01-20T06:03:16.992Z,16.03
2018-01-20T06:05:44.539Z,15.47
2018-01-20T06:08:12.081Z,14.20
2018-01-20T06:10:39.718Z,15.63
2018-01-20T06:13:07.258Z,15.13
2018-01-20T06:15:35.325Z,15.37
2018-01-20T06:18:02.954Z,13.73
2018-01-20T06:20:30.553Z,14.40
2018-01-20T06:22:58.096Z,16.00
2018-01-20T06:25:25.650Z,14.70
2018-01-20T06:27:53.243Z,15.63
2018-01-20T06:30:20.791Z,14.70
2018-01-20T06:32:48.333Z,15.90
2018-01-20T06:35:15.881Z,14.10
2018-01-20T06:37:43.441Z,14.90
2018-01-20T06:40:11.029Z,14.60
2018-01-20T06:42:38.582Z,16.20
2018-01-20T06:45:06.176Z,14.10
2018-01-20T06:47:33.731Z,15.53
2018-01-20T06:50:01.374Z,15.47
2018-01-20T06:52:28.917Z,15.50
2018-01-20T06:54:56.461Z,15.97
2018-01-20T06:57:24.081Z,16.33
2018-01-20T06:59:52.661Z,15.47
2018-01-20T07:02:21.198Z,15.23
2018-01-20T07:04:48.741Z,17.03
2018-01-20T07:07:16.320Z,15.20
2018-01-20T07:09:43.862Z,15.60
2018-01-20T07:12:11.451Z,15.87
2018-01-20T07:14:39.326Z,16.63
2018-01-20T07:17:06.947Z,15.80
2018-01-20T07:19:34.494Z,15.23
2018-01-20T07:22:02.045Z,15.53
2018-01-20T07:24:29.586Z,15.33
2018-01-20T07:26:57.166Z,17.43
2018-01-20T07:29:24.830Z,17.27
2018-01-20T07:31:52.463Z,16.67
2018-01-20T07:34:20.235Z,18.00
2018-01-20T07:36:47.783Z,17.10
2018-01-20T07:39:15.366Z,17.03
2018-01-20T07:41:42.908Z,32.40
2018-01-20T07:44:10.454Z,15.47
2018-01-20T07:46:38.002Z,16.70
2018-01-20T07:49:05.570Z,14.97
2018-01-20T07:51:33.282Z,17.43
2018-01-20T07:54:00.927Z,16.80
2018-01-20T07:56:28.476Z,15.67
2018-01-20T07:58:56.051Z,15.57
2018-01-20T08:01:23.599Z,15.73
2018-01-20T08:03:51.193Z,17.73
2018-01-20T08:06:18.733Z,17.17
2018-01-20T08:08:46.319Z,15.10
2018-01-20T08:11:13.864Z,17.27
2018-01-20T08:13:42.354Z,13.63
2018-01-20T08:16:10.015Z,14.43
2018-01-20T08:18:38.269Z,16.73
2018-01-20T08:21:05.823Z,15.70
2018-01-20T08:23:33.429Z,14.43
2018-01-20T08:26:00.979Z,15.40
2018-01-20T08:28:28.530Z,13.47
2018-01-20T08:30:56.100Z,15.13
2018-01-20T08:33:23.643Z,14.17
2018-01-20T08:35:51.189Z,18.17
2018-01-20T08:38:18.738Z,16.60
2018-01-20T08:40:46.280Z,13.47
2018-01-20T08:43:13.838Z,13.27
2018-01-20T08:45:41.378Z,14.43
2018-01-20T08:48:08.926Z,13.40
2018-01-20T08:50:36.510Z,13.97
2018-01-20T08:53:04.142Z,13.37
2018-01-20T08:55:31.706Z,13.97
2018-01-20T08:57:59.372Z,12.23
2018-01-20T09:00:26.918Z,13.47
2018-01-20T09:02:54.458Z,12.37
2018-01-20T09:05:22.006Z,11.37
2018-01-20T09:07:49.953Z,12.30
2018-01-20T09:10:17.603Z,11.57
2018-01-20T09:12:45.154Z,11.93
2018-01-20T09:15:12.753Z,11.30
2018-01-20T09:17:40.289Z,12.13
2018-01-20T09:20:07.891Z,11.67
2018-01-20T09:22:35.498Z,11.00
2018-01-20T09:25:03.269Z,10.33
2018-01-20T09:27:30.819Z,9.43
2018-01-20T09:29:58.482Z,11.80
2018-01-20T09:32:26.036Z,10.37
2018-01-20T09:34:54.381Z,10.20
2018-01-20T09:37:22.530Z,10.63
2018-01-20T09:39:50.081Z,11.40
2018-01-20T09:42:17.658Z,9.87
2018-01-20T09:44:45.288Z,10.03
2018-01-20T09:47:12.870Z,10.60
2018-01-20T09:49:41.313Z,9.60
2018-01-20T09:52:09.546Z,9.80
2018-01-20T09:54:38.004Z,9.83
2018-01-20T09:57:06.473Z,10.10
2018-01-20T09:59:34.905Z,10.47
2018-01-20T10:02:02.468Z,10.37
2018-01-20T10:04:30.058Z,10.00
2018-01-20T10:06:57.598Z,8.57
2018-01-20T10:09:26.099Z,9.80
2018-01-20T10:11:53.662Z,8.43
2018-01-20T10:14:21.338Z,9.30
2018-01-20T10:16:48.989Z,9.10
2018-01-20T10:19:16.624Z,9.10
2018-01-20T10:21:44.181Z,9.30
2018-01-20T10:24:11.778Z,8.53
2018-01-20T10:26:39.371Z,8.30
2018-01-20T10:29:06.991Z,9.10
2018-01-20T10:31:34.532Z,8.60
2018-01-20T10:34:02.371Z,8.83
2018-01-20T10:36:29.994Z,8.23
2018-01-20T10:38:57.573Z,9.13
2018-01-20T10:41:25.129Z,9.50
2018-01-20T10:43:52.709Z,8.00
2018-01-20T10:46:20.254Z,7.77
2018-01-20T10:48:47.834Z,8.03
2018-01-20T10:51:15.453Z,7.83
2018-01-20T10:53:43.283Z,8.30
2018-01-20T10:56:10.860Z,7.70
2018-01-20T10:58:39.390Z,6.60
2018-01-20T11:01:06.961Z,7.03
2018-01-20T11:03:34.578Z,7.97
2018-01-20T11:06:02.350Z,7.40
2018-01-20T11:08:30.798Z,5.90
2018-01-20T11:10:58.438Z,5.70
2018-01-20T11:13:26.029Z,5.90
2018-01-20T11:15:53.579Z,5.90
2018-01-20T11:18:21.136Z,7.37
2018-01-20T11:20:48.735Z,7.73
2018-01-20T11:23:16.397Z,9.03
2018-01-20T11:25:43.938Z,8.43
2018-01-20T11:28:11.528Z,8.00
2018-01-20T11:30:39.295Z,8.00
2018-01-20T11:33:06.883Z,8.53
2018-01-20T11:35:34.514Z,8.97
2018-01-20T11:38:02.049Z,9.27
2018-01-20T11:40:29.589Z,7.90
2018-01-20T11:42:57.130Z,8.90
2018-01-20T11:45:24.684Z,7.70
2018-01-20T11:47:52.463Z,7.70
2018-01-20T11:50:20.078Z,7.80
2018-01-20T11:52:47.624Z,6.97
2018-01-20T11:55:16.011Z,7.50
2018-01-20T11:57:43.552Z,6.70
2018-01-20T12:00:12.002Z,7.00
2018-01-20T12:02:40.247Z,6.77
2018-01-20T12:05:07.790Z,7.53
2018-01-20T12:07:35.357Z,7.90
2018-01-20T12:10:02.904Z,8.17
2018-01-20T12:12:30.448Z,9.13
2018-01-20T12:14:57.983Z,9.33
2018-01-20T12:17:25.593Z,10.57
2018-01-20T12:19:53.190Z,10.00
2018-01-20T12:22:20.749Z,10.17
2018-01-20T12:24:48.291Z,9.73
2018-01-20T12:27:16.053Z,11.30
2018-01-20T12:29:44.397Z,11.17
2018-01-20T12:32:11.957Z,11.17
2018-01-20T12:34:39.504Z,11.47
2018-01-20T12:37:07.077Z,12.67
2018-01-20T12:39:34.623Z,12.93
2018-01-20T12:42:02.173Z,12.10
2018-01-20T12:44:29.753Z,11.20
2018-01-20T12:46:57.433Z,11.67
2018-01-20T12:49:24.991Z,11.77
2018-01-20T12:51:53.394Z,10.23
2018-01-20T12:54:21.744Z,13.20
2018-01-20T12:56:50.661Z,11.30
2018-01-20T12:59:19.258Z,12.07
2018-01-20T13:01:48.090Z,11.97
2018-01-20T13:04:15.703Z,11.23
2018-01-20T13:06:43.241Z,11.67
2018-01-20T13:09:10.890Z,12.87
2018-01-20T13:11:40.027Z,10.70
2018-01-20T13:14:08.629Z,10.70
2018-01-20T13:16:43.799Z,12.30
2018-01-20T13:19:17.878Z,12.30
2018-01-20T13:21:48.390Z,10.80
2018-01-20T13:24:22.403Z,9.87
2018-01-20T13:26:54.769Z,12.50
2018-01-20T13:32:14.870Z,11.80
2018-01-20T13:35:07.468Z,11.23
2018-01-20T13:40:47.453Z,10.30
2018-01-20T13:43:17.908Z,10.40
2018-01-20T13:49:05.399Z,10.73
2018-01-20T13:51:35.929Z,10.93
2018-01-20T13:54:05.225Z,10.27
2018-01-20T13:56:34.007Z,10.23
2018-01-20T13:59:03.914Z,11.70
2018-01-20T14:01:33.285Z,12.23
2018-01-20T14:04:03.042Z,10.20
2018-01-20T14:06:31.828Z,12.07
2018-01-20T14:09:00.732Z,12.40
2018-01-20T14:11:28.994Z,14.17
2018-01-20T14:14:06.628Z,12.07
2018-01-20T14:16:45.358Z,12.77
2018-01-20T14:19:13.609Z,11.97
2018-01-20T14:24:38.543Z,11.40
2018-01-20T14:27:12.629Z,10.83
2018-01-20T14:29:45.918Z,11.10
2018-01-20T14:32:15.513Z,11.93
2018-01-20T14:34:51.537Z,12.00
2018-01-20T14:37:21.920Z,11.90
2018-01-20T14:39:52.188Z,10.80
2018-01-20T14:45:07.993Z,10.13
2018-01-20T14:47:46.058Z,11.83
2018-01-20T14:50:15.769Z,11.23
2018-01-20T14:52:45.648Z,11.23
2018-01-20T14:55:21.233Z,11.77
2018-01-20T14:58:04.777Z,11.87
2018-01-20T15:00:39.099Z,12.30
2018-01-20T15:03:17.432Z,11.03
2018-01-20T15:05:50.709Z,11.30
2018-01-20T15:08:19.846Z,11.63
2018-01-20T15:10:47.389Z,13.93
2018-01-20T15:13:15.022Z,13.10
2018-01-20T15:15:42.687Z,12.90
2018-01-20T15:18:10.430Z,12.00
2018-01-20T15:20:38.017Z,11.80
2018-01-20T15:23:05.566Z,11.67
2018-01-20T15:25:33.175Z,10.37
2018-01-20T15:28:00.722Z,11.00
2018-01-20T15:30:28.273Z,10.93
2018-01-20T15:32:55.869Z,10.00
2018-01-20T15:35:23.478Z,9.80
2018-01-20T15:37:51.022Z,10.03
2018-01-20T15:40:18.605Z,10.70
2018-01-20T15:42:46.902Z,11.77
2018-01-20T15:45:15.330Z,11.47
2018-01-20T15:47:42.897Z,10.07
2018-01-20T15:50:10.564Z,10.47
2018-01-20T15:52:38.115Z,8.93
2018-01-20T15:55:05.707Z,7.80
2018-01-20T15:57:33.258Z,8.17
2018-01-20T16:00:00.800Z,10.10
2018-01-20T16:02:28.350Z,9.37
2018-01-20T16:04:55.946Z,8.37
2018-01-20T16:07:23.486Z,9.33
2018-01-20T16:09:51.030Z,7.83
2018-01-20T16:12:18.574Z,10.10
2018-01-20T16:14:46.190Z,9.53
2018-01-20T16:17:14.610Z,10.40
2018-01-20T16:19:43.763Z,11.53
2018-01-20T16:22:15.268Z,11.20
2018-01-20T16:24:43.877Z,11.50
2018-01-20T16:27:11.574Z,10.43
2018-01-20T16:29:39.745Z,13.40
2018-01-20T16:32:07.841Z,12.93
2018-01-20T16:34:35.459Z,10.70
2018-01-20T16:37:03.005Z,9.60
2018-01-20T16:39:31.398Z,9.07
2018-01-20T16:41:58.942Z,9.63
2018-01-20T16:44:26.511Z,7.97
2018-01-20T16:46:54.899Z,7.53
2018-01-20T16:49:22.437Z,8.07
2018-01-20T16:51:50.015Z,8.60
2018-01-20T16:54:17.556Z,8.20
2018-01-20T16:56:45.264Z,6.83
2018-01-20T16:59:12.945Z,7.07
2018-01-20T17:01:40.526Z,6.67
2018-01-20T17:04:08.127Z,7.10
2018-01-20T17:06:35.674Z,8.53
2018-01-20T17:09:03.214Z,7.70
2018-01-20T17:11:30.762Z,10.30
2018-01-20T17:13:58.360Z,8.60
2018-01-20T17:16:26.063Z,9.27
2018-01-20T17:18:53.639Z,8.73
2018-01-20T17:21:21.178Z,8.60
2018-01-20T17:23:49.467Z,9.33
2018-01-20T17:26:17.941Z,9.40
2018-01-20T17:28:46.267Z,9.70
2018-01-20T17:31:13.896Z,11.80
2018-01-20T17:33:41.433Z,10.67
2018-01-20T17:36:09.202Z,12.00
2018-01-20T17:38:36.786Z,11.77
2018-01-20T17:41:04.342Z,11.73
2018-01-20T17:43:31.913Z,10.20
2018-01-20T17:45:59.459Z,9.30
2018-01-20T17:48:27.054Z,10.37
2018-01-20T17:50:54.598Z,11.07
2018-01-20T17:53:22.364Z,10.43
2018-01-20T17:55:49.910Z,13.60
2018-01-20T17:58:18.222Z,14.90
2018-01-20T18:00:45.802Z,14.83
2018-01-20T18:03:13.345Z,13.30
2018-01-20T18:05:40.959Z,12.00
2018-01-20T18:08:08.585Z,11.17
2018-01-20T18:10:36.380Z,12.83
2018-01-20T18:13:03.926Z,12.13
2018-01-20T18:15:31.505Z,13.30
2018-01-20T18:17:59.046Z,11.80
2018-01-20T18:20:26.627Z,13.97
2018-01-20T18:22:55.076Z,15.20
2018-01-20T18:25:22.630Z,15.43
2018-01-20T18:27:50.245Z,17.00
2018-01-20T18:30:17.793Z,18.20
2018-01-20T18:32:46.243Z,17.40
2018-01-20T18:35:13.836Z,15.95
2018-01-20T18:37:41.399Z,15.50
2018-01-20T18:40:08.942Z,15.37
2018-01-20T18:42:36.514Z,17.37
2018-01-20T18:45:05.251Z,20.70
2018-01-20T18:47:32.982Z,20.12
2018-01-20T18:50:00.530Z,20.12
2018-01-20T18:52:28.076Z,19.95
2018-01-20T18:54:55.653Z,19.58
2018-01-20T18:57:23.314Z,20.02
2018-01-20T18:59:50.862Z,21.75
2018-01-20T19:02:18.406Z,22.02
2018-01-20T19:04:46.097Z,22.05
2018-01-20T19:07:13.661Z,22.52
2018-01-20T19:09:41.218Z,19.40
2018-01-20T19:12:08.774Z,22.05
2018-01-20T19:14:36.362Z,20.80
2018-01-20T19:17:03.962Z,21.17
2018-01-20T19:19:32.125Z,22.25
2018-01-20T19:21:59.669Z,19.75
2018-01-20T19:24:27.414Z,21.20
2018-01-20T19:26:54.970Z,24.10
2018-01-20T19:29:22.526Z,21.70
2018-01-20T19:31:50.084Z,22.52
2018-01-20T19:34:17.642Z,20.92
2018-01-20T19:36:45.189Z,20.65
2018-01-20T19:39:12.770Z,18.77
2018-01-20T19:41:41.411Z,20.37
2018-01-20T19:44:09.834Z,18.73
2018-01-20T19:46:38.182Z,20.20
2018-01-20T19:49:05.737Z,19.73
2018-01-20T19:51:33.298Z,18.73
2018-01-20T19:54:00.895Z,18.40
2018-01-20T19:56:28.451Z,20.23
2018-01-20T19:58:56.075Z,20.17
2018-01-20T20:01:23.635Z,18.37
2018-01-20T20:03:51.380Z,20.05
2018-01-20T20:06:18.972Z,19.83
2018-01-20T20:08:46.524Z,16.85
2018-01-20T20:11:14.074Z,18.12
2018-01-20T20:13:41.630Z,19.87
2018-01-20T20:16:09.219Z,20.40
2018-01-20T20:18:36.960Z,21.15
2018-01-20T20:21:04.521Z,22.30
2018-01-20T20:23:32.141Z,22.73
2018-01-20T20:25:59.695Z,23.55
2018-01-20T20:28:27.294Z,23.98
2018-01-20T20:30:54.845Z,25.37
2018-01-20T20:33:22.399Z,23.87
2018-01-20T20:35:49.953Z,25.80
2018-01-20T20:38:17.555Z,25.05
2018-01-20T20:40:45.310Z,24.00
2018-01-20T20:43:12.871Z,23.40
2018-01-20T20:45:40.470Z,23.30
2018-01-20T20:48:12.375Z,23.27
2018-01-20T20:56:33.048Z,23.00
2018-01-20T20:59:09.257Z,24.40
2018-01-20T21:01:43.356Z,22.30
2018-01-20T21:13:55.004Z,22.85
2018-01-20T21:16:23.240Z,22.77
2018-01-20T21:18:55.575Z,23.38
2018-01-20T21:21:32.130Z,23.98
2018-01-20T21:24:15.672Z,24.58
2018-01-20T21:26:45.433Z,24.50
2018-01-20T21:29:22.519Z,22.42
2018-01-20T21:31:52.721Z,20.80
2018-01-20T21:37:20.402Z,21.25
2018-01-20T21:39:55.933Z,21.52
2018-01-20T21:42:24.672Z,24.80
2018-01-20T21:44:57.335Z,23.52
2018-01-20T21:47:31.320Z,24.80
2018-01-20T21:49:59.650Z,24.95
2018-01-20T21:52:35.349Z,23.48
2018-01-20T22:06:37.683Z,24.83
2018-01-20T22:09:05.271Z,26.80
2018-01-20T22:11:32.966Z,26.92
2018-01-20T22:14:00.529Z,24.23
2018-01-20T22:16:28.142Z,25.00
2018-01-20T22:18:55.701Z,27.73
2018-01-20T22:21:23.353Z,27.17
2018-01-20T22:23:50.910Z,27.37
2018-01-20T22:26:18.465Z,29.05
2018-01-20T22:28:46.058Z,26.95
2018-01-20T22:31:13.679Z,25.80
2018-01-20T22:33:41.505Z,23.55
2018-01-20T22:36:09.137Z,25.92
2018-01-20T22:38:36.769Z,26.17
2018-01-20T22:41:04.319Z,20.80
2018-01-20T22:43:31.924Z,26.27
2018-01-20T22:45:59.475Z,24.52
2018-01-20T22:48:28.606Z,29.40
2018-01-20T22:50:56.199Z,31.10
2018-01-20T22:53:23.905Z,30.23
2018-01-20T22:55:51.493Z,24.33
2018-01-20T22:58:19.054Z,25.65
2018-01-20T23:00:46.685Z,27.02
2018-01-20T23:03:14.242Z,28.20
2018-01-20T23:05:41.799Z,27.48
2018-01-20T23:08:10.401Z,27.05
2018-01-20T23:10:38.236Z,25.27
2018-01-20T23:13:05.786Z,22.98
2018-01-20T23:15:33.354Z,20.60
2018-01-20T23:18:00.942Z,22.90
2018-01-20T23:20:28.494Z,22.55
2018-01-20T23:22:56.078Z,22.70
2018-01-20T23:25:23.729Z,22.60
2018-01-20T23:27:51.326Z,18.30
2018-01-20T23:30:18.915Z,17.45
2018-01-20T23:32:47.434Z,19.77
2018-01-20T23:35:14.989Z,21.05
2018-01-20T23:37:43.102Z,22.33
2018-01-20T23:40:10.653Z,24.90
2018-01-20T23:42:38.211Z,24.87
2018-01-20T23:45:05.820Z,24.17
2018-01-20T23:47:33.410Z,25.10
2018-01-20T23:50:00.961Z,24.40
2018-01-20T23:52:28.508Z,22.77
2018-01-20T23:54:56.062Z,24.83
2018-01-20T23:57:23.627Z,24.58
2018-01-20T23:59:51.173Z,27.20
